Time;durP1;ratioP1;P1;durP2;ratioP2;P2;SDS_P1;SDS_P2;PMS_P1;PMS_P2;Temp;Humidity;BMP_temperature;BMP_pressure;BME280_temperature;BME280_humidity;BME280_pressure;Samples;Min_cycle;Max_cycle;Signal;HPM_P1;HPM_P2
2024/04/22 00:01:53;;;;;;;2.10;0.90;;;;;;;;;;5409398;26;20081;-58
2024/04/22 00:04:19;;;;;;;2.00;1.10;;;;;;;;;;5405874;26;20018;-58
2024/04/22 00:06:45;;;;;;;1.92;1.30;;;;;;;;;;5385649;26;20005;-58
2024/04/22 00:09:11;;;;;;;2.05;1.30;;;;;;;;;;5407333;26;20529;-58
2024/04/22 00:11:36;;;;;;;2.92;1.40;;;;;;;;;;5406487;26;20466;-58
2024/04/22 00:14:02;;;;;;;1.80;1.10;;;;;;;;;;5412460;26;20008;-58
2024/04/22 00:16:27;;;;;;;2.17;1.38;;;;;;;;;;5410399;26;20004;-58
2024/04/22 00:18:52;;;;;;;1.70;0.90;;;;;;;;;;5404122;26;19996;-58
2024/04/22 00:21:18;;;;;;;2.75;1.10;;;;;;;;;;5396811;26;20445;-58
2024/04/22 00:23:43;;;;;;;1.85;1.10;;;;;;;;;;5411880;26;20000;-58
2024/04/22 00:26:08;;;;;;;0.98;0.80;;;;;;;;;;5406547;26;20010;-58
2024/04/22 00:28:34;;;;;;;2.35;1.25;;;;;;;;;;5405927;26;20043;-58
2024/04/22 00:30:59;;;;;;;2.13;1.20;;;;;;;;;;5411308;26;19999;-57
2024/04/22 00:33:24;;;;;;;2.10;0.98;;;;;;;;;;5411501;26;20000;-59
2024/04/22 00:35:56;;;;;;;2.47;1.10;;;;;;;;;;5412157;26;20018;-58
2024/04/22 00:38:22;;;;;;;2.47;1.00;;;;;;;;;;5408125;26;20072;-58
2024/04/22 00:40:47;;;;;;;1.80;1.08;;;;;;;;;;5406344;26;20015;-58
2024/04/22 00:43:12;;;;;;;2.03;0.93;;;;;;;;;;5404933;26;20016;-58
2024/04/22 00:45:37;;;;;;;2.10;1.10;;;;;;;;;;5411671;26;20008;-59
2024/04/22 00:48:03;;;;;;;1.77;0.85;;;;;;;;;;5400109;26;20399;-58
2024/04/22 00:50:29;;;;;;;2.15;1.00;;;;;;;;;;5390763;26;20295;-57
2024/04/22 00:52:54;;;;;;;1.63;0.82;;;;;;;;;;5408683;26;20452;-58
2024/04/22 00:55:19;;;;;;;2.45;1.10;;;;;;;;;;5388698;26;20015;-58
2024/04/22 00:57:45;;;;;;;1.85;1.13;;;;;;;;;;5408901;26;20341;-59
2024/04/22 01:00:12;;;;;;;2.17;1.27;;;;;;;;;;5384890;26;20391;-58
2024/04/22 01:02:37;;;;;;;3.47;1.25;;;;;;;;;;5402807;26;19999;-58
2024/04/22 01:05:02;;;;;;;2.10;0.95;;;;;;;;;;5428058;26;20007;-59
2024/04/22 01:07:28;;;;;;;1.88;1.20;;;;;;;;;;5402557;26;20000;-59
2024/04/22 01:09:53;;;;;;;2.58;1.15;;;;;;;;;;5410731;26;20012;-59
2024/04/22 01:12:18;;;;;;;2.83;1.02;;;;;;;;;;5386742;26;20081;-59
2024/04/22 01:14:44;;;;;;;1.80;1.00;;;;;;;;;;5408267;26;20003;-59
2024/04/22 01:17:09;;;;;;;1.17;1.00;;;;;;;;;;5410278;26;19999;-59
2024/04/22 01:19:34;;;;;;;1.30;0.85;;;;;;;;;;5398237;26;19996;-60
2024/04/22 01:22:00;;;;;;;1.73;1.33;;;;;;;;;;5409717;26;20000;-60
2024/04/22 01:24:25;;;;;;;1.42;0.98;;;;;;;;;;5407885;26;20077;-59
2024/04/22 01:26:50;;;;;;;2.33;1.10;;;;;;;;;;5398599;26;20020;-59
2024/04/22 01:29:16;;;;;;;1.33;0.90;;;;;;;;;;5406155;26;20072;-58
2024/04/22 01:31:41;;;;;;;1.58;0.98;;;;;;;;;;5393996;26;20089;-59
2024/04/22 01:34:06;;;;;;;2.10;0.80;;;;;;;;;;5408285;26;20574;-59
2024/04/22 01:36:31;;;;;;;1.55;0.85;;;;;;;;;;5404293;26;20437;-59
2024/04/22 01:38:57;;;;;;;1.30;0.73;;;;;;;;;;5392623;26;20004;-59
2024/04/22 01:41:22;;;;;;;1.10;0.70;;;;;;;;;;5387301;26;20040;-59
2024/04/22 01:43:48;;;;;;;1.52;0.90;;;;;;;;;;5402588;26;20056;-59
2024/04/22 01:46:13;;;;;;;1.83;1.00;;;;;;;;;;5410177;26;19999;-59
2024/04/22 01:48:38;;;;;;;1.98;0.90;;;;;;;;;;5390520;26;20453;-58
2024/04/22 01:51:04;;;;;;;1.38;0.80;;;;;;;;;;5410472;26;20376;-59
2024/04/22 01:53:29;;;;;;;1.45;0.80;;;;;;;;;;5409038;26;20011;-59
2024/04/22 01:55:57;;;;;;;1.58;0.90;;;;;;;;;;5410954;26;20000;-59
2024/04/22 01:58:23;;;;;;;1.02;0.70;;;;;;;;;;5397429;26;20008;-59
2024/04/22 02:00:48;;;;;;;2.00;1.00;;;;;;;;;;5406096;26;20015;-59
2024/04/22 02:03:13;;;;;;;1.40;0.93;;;;;;;;;;5382243;26;20024;-59
2024/04/22 02:05:40;;;;;;;1.40;0.88;;;;;;;;;;5391318;26;20326;-59
2024/04/22 02:08:05;;;;;;;1.83;1.00;;;;;;;;;;5392261;26;20142;-59
2024/04/22 02:10:30;;;;;;;1.45;0.70;;;;;;;;;;5403048;26;20061;-59
2024/04/22 02:12:56;;;;;;;1.35;0.82;;;;;;;;;;5393005;26;20014;-59
2024/04/22 02:15:21;;;;;;;1.55;0.90;;;;;;;;;;5385847;26;20387;-59
2024/04/22 02:17:46;;;;;;;1.10;0.70;;;;;;;;;;5411313;26;20053;-59
2024/04/22 02:20:12;;;;;;;1.27;0.70;;;;;;;;;;5408453;26;20011;-59
2024/04/22 02:22:37;;;;;;;1.13;0.80;;;;;;;;;;5409315;26;20003;-59
2024/04/22 02:25:03;;;;;;;1.25;0.75;;;;;;;;;;5410690;26;20003;-59
2024/04/22 02:27:28;;;;;;;1.38;0.80;;;;;;;;;;5405675;26;20003;-59
2024/04/22 02:29:53;;;;;;;2.35;1.20;;;;;;;;;;5394908;26;20003;-59
2024/04/22 02:32:20;;;;;;;1.98;0.77;;;;;;;;;;5384372;26;20373;-59
2024/04/22 02:34:45;;;;;;;1.70;0.95;;;;;;;;;;5394885;26;20041;-59
2024/04/22 02:37:11;;;;;;;1.48;0.77;;;;;;;;;;5410570;26;20010;-59
2024/04/22 02:39:36;;;;;;;1.50;0.80;;;;;;;;;;5407798;26;20109;-59
2024/04/22 02:42:01;;;;;;;1.05;0.68;;;;;;;;;;5407764;26;20071;-59
2024/04/22 02:44:27;;;;;;;1.77;0.80;;;;;;;;;;5410299;26;20042;-59
2024/04/22 02:46:52;;;;;;;1.88;0.70;;;;;;;;;;5406253;26;20097;-59
2024/04/22 02:49:17;;;;;;;1.20;0.80;;;;;;;;;;5408496;26;19999;-59
2024/04/22 02:51:42;;;;;;;1.73;0.80;;;;;;;;;;5393336;26;20004;-59
2024/04/22 02:54:08;;;;;;;1.10;0.70;;;;;;;;;;5376554;26;20015;-59
2024/04/22 02:56:33;;;;;;;0.82;0.60;;;;;;;;;;5384226;26;20004;-59
2024/04/22 02:58:58;;;;;;;1.13;0.77;;;;;;;;;;5409942;26;20010;-58
2024/04/22 03:01:24;;;;;;;1.10;0.70;;;;;;;;;;5404840;26;20000;-59
2024/04/22 03:03:49;;;;;;;1.35;0.70;;;;;;;;;;5391872;26;20080;-59
2024/04/22 03:06:14;;;;;;;1.00;0.70;;;;;;;;;;5409476;26;20004;-59
2024/04/22 03:08:40;;;;;;;1.25;0.60;;;;;;;;;;5394837;26;20028;-59
2024/04/22 03:11:05;;;;;;;1.10;0.70;;;;;;;;;;5407958;26;20007;-59
2024/04/22 03:13:30;;;;;;;2.55;0.85;;;;;;;;;;5408069;26;20444;-59
2024/04/22 03:15:55;;;;;;;1.80;0.80;;;;;;;;;;5409989;26;19996;-60
2024/04/22 03:18:21;;;;;;;1.98;0.80;;;;;;;;;;5405878;26;19997;-59
2024/04/22 03:20:46;;;;;;;1.92;0.90;;;;;;;;;;5398353;26;20121;-60
2024/04/22 03:23:12;;;;;;;1.23;0.68;;;;;;;;;;5412733;26;20002;-59
2024/04/22 03:25:37;;;;;;;1.30;0.70;;;;;;;;;;5394914;26;20071;-60
2024/04/22 03:28:02;;;;;;;1.40;0.90;;;;;;;;;;5410094;26;20011;-59
2024/04/22 03:30:28;;;;;;;2.03;0.88;;;;;;;;;;5395462;26;20065;-59
2024/04/22 03:32:53;;;;;;;1.65;0.80;;;;;;;;;;5408985;26;20421;-58
2024/04/22 03:35:18;;;;;;;0.50;0.43;;;;;;;;;;5376936;26;20005;-58
2024/04/22 03:37:44;;;;;;;1.58;0.73;;;;;;;;;;5366876;26;20005;-59
2024/04/22 03:40:09;;;;;;;1.35;0.63;;;;;;;;;;5385896;26;20116;-59
2024/04/22 03:42:34;;;;;;;1.00;0.60;;;;;;;;;;5390792;26;20090;-59
2024/04/22 03:45:00;;;;;;;1.52;0.80;;;;;;;;;;5389825;26;20003;-59
2024/04/22 03:50:09;;;;;;;1.45;0.70;;;;;;;;;;5390144;26;21236;-59
2024/04/22 03:52:34;;;;;;;1.25;0.63;;;;;;;;;;5404512;26;20019;-59
2024/04/22 03:54:59;;;;;;;1.00;0.70;;;;;;;;;;5403077;26;20104;-59
2024/04/22 03:57:25;;;;;;;0.90;0.70;;;;;;;;;;5365851;26;20001;-58
2024/04/22 03:59:50;;;;;;;1.05;0.68;;;;;;;;;;5372939;26;20007;-59
2024/04/22 04:02:15;;;;;;;0.93;0.60;;;;;;;;;;5388710;26;20007;-59
2024/04/22 04:04:41;;;;;;;3.88;0.80;;;;;;;;;;5393895;26;20000;-57
2024/04/22 04:07:06;;;;;;;1.50;0.75;;;;;;;;;;5393977;26;20101;-58
2024/04/22 04:09:31;;;;;;;2.38;1.10;;;;;;;;;;5391560;26;21518;-58
2024/04/22 04:11:56;;;;;;;1.33;0.65;;;;;;;;;;5385225;26;20000;-58
2024/04/22 04:14:22;;;;;;;1.02;0.73;;;;;;;;;;5394955;26;20018;-58
2024/04/22 04:16:47;;;;;;;1.17;0.70;;;;;;;;;;5404128;26;20003;-58
2024/04/22 04:19:12;;;;;;;1.20;0.70;;;;;;;;;;5411967;26;20007;-58
2024/04/22 04:21:38;;;;;;;1.25;0.80;;;;;;;;;;5399821;26;20405;-58
2024/04/22 04:24:03;;;;;;;1.25;0.50;;;;;;;;;;5408653;26;20014;-59
2024/04/22 04:26:29;;;;;;;1.20;0.77;;;;;;;;;;5408748;26;20102;-59
2024/04/22 04:28:54;;;;;;;2.83;0.70;;;;;;;;;;5395000;26;20007;-57
2024/04/22 04:31:19;;;;;;;1.15;0.70;;;;;;;;;;5391050;26;20004;-58
2024/04/22 04:33:44;;;;;;;1.67;0.55;;;;;;;;;;5390343;26;20011;-57
2024/04/22 04:36:10;;;;;;;2.75;1.08;;;;;;;;;;5386790;26;20003;-57
2024/04/22 04:38:35;;;;;;;1.20;0.70;;;;;;;;;;5388960;26;20010;-57
2024/04/22 04:41:01;;;;;;;2.05;1.00;;;;;;;;;;5395331;26;20004;-56
2024/04/22 04:43:26;;;;;;;0.90;0.50;;;;;;;;;;5399162;26;20068;-58
2024/04/22 04:45:51;;;;;;;0.95;0.52;;;;;;;;;;5386893;26;20336;-57
2024/04/22 04:48:18;;;;;;;2.22;0.70;;;;;;;;;;5387425;26;19999;-57
2024/04/22 04:50:43;;;;;;;1.00;0.60;;;;;;;;;;5385833;26;20003;-58
2024/04/22 04:53:10;;;;;;;1.75;0.70;;;;;;;;;;5393145;26;20019;-57
2024/04/22 04:55:35;;;;;;;1.75;0.75;;;;;;;;;;5385805;26;20004;-58
2024/04/22 04:58:00;;;;;;;0.93;0.60;;;;;;;;;;5388230;26;20000;-57
2024/04/22 05:00:26;;;;;;;1.85;0.60;;;;;;;;;;5391881;26;20008;-57
2024/04/22 05:02:51;;;;;;;1.23;0.60;;;;;;;;;;5392000;26;20108;-58
2024/04/22 05:05:16;;;;;;;0.93;0.60;;;;;;;;;;5388270;26;20039;-57
2024/04/22 05:07:48;;;;;;;1.52;0.50;;;;;;;;;;5390826;26;19996;-57
2024/04/22 05:10:13;;;;;;;0.90;0.55;;;;;;;;;;5365167;26;20011;-57
2024/04/22 05:12:38;;;;;;;1.10;0.60;;;;;;;;;;5375017;26;20554;-57
2024/04/22 05:15:04;;;;;;;2.97;0.70;;;;;;;;;;5386904;26;20000;-57
2024/04/22 05:17:29;;;;;;;1.00;0.68;;;;;;;;;;5396057;26;19999;-57
2024/04/22 05:19:54;;;;;;;1.00;0.50;;;;;;;;;;5389284;26;20043;-57
2024/04/22 05:22:20;;;;;;;0.60;0.40;;;;;;;;;;5391142;26;20558;-58
2024/04/22 05:24:45;;;;;;;3.35;0.65;;;;;;;;;;5389384;26;20302;-58
2024/04/22 05:27:11;;;;;;;3.88;1.10;;;;;;;;;;5396454;26;20083;-58
2024/04/22 05:29:36;;;;;;;2.58;0.73;;;;;;;;;;5384921;26;20413;-58
2024/04/22 05:32:02;;;;;;;2.40;0.70;;;;;;;;;;5386139;26;20000;-59
2024/04/22 05:37:11;;;;;;;2.95;0.85;;;;;;;;;;5389143;26;20006;-57
2024/04/22 05:39:36;;;;;;;4.70;1.13;;;;;;;;;;5396828;26;20326;-58
2024/04/22 05:42:02;;;;;;;3.38;0.90;;;;;;;;;;5389395;26;19993;-58
2024/04/22 05:44:27;;;;;;;2.63;0.88;;;;;;;;;;5388988;26;20039;-57
2024/04/22 05:46:52;;;;;;;6.18;1.15;;;;;;;;;;5393272;26;20061;-59
2024/04/22 05:49:18;;;;;;;3.60;0.85;;;;;;;;;;5388727;26;19996;-58
2024/04/22 05:51:43;;;;;;;5.80;0.90;;;;;;;;;;5403100;26;20087;-57
2024/04/22 05:54:09;;;;;;;4.45;0.85;;;;;;;;;;5397104;26;20007;-56
2024/04/22 05:56:37;;;;;;;6.65;1.15;;;;;;;;;;5387924;26;20015;-56
2024/04/22 05:59:03;;;;;;;6.00;1.10;;;;;;;;;;5392601;26;20010;-56
2024/04/22 06:01:28;;;;;;;9.63;1.50;;;;;;;;;;5394979;26;20015;-57
2024/04/22 06:03:53;;;;;;;4.65;1.00;;;;;;;;;;5391986;26;20072;-57
2024/04/22 06:06:18;;;;;;;7.25;1.10;;;;;;;;;;5388565;26;20011;-57
2024/04/22 06:08:44;;;;;;;5.95;1.20;;;;;;;;;;5388890;26;20352;-57
2024/04/22 06:11:09;;;;;;;6.20;1.52;;;;;;;;;;5390417;26;20004;-58
2024/04/22 06:13:34;;;;;;;8.00;1.30;;;;;;;;;;5393137;26;19996;-58
2024/04/22 06:16:00;;;;;;;8.25;1.73;;;;;;;;;;5390012;26;20011;-57
2024/04/22 06:18:25;;;;;;;7.70;1.20;;;;;;;;;;5388186;26;20031;-56
2024/04/22 06:20:50;;;;;;;8.27;1.75;;;;;;;;;;5386686;26;20129;-58
2024/04/22 06:23:16;;;;;;;6.10;1.42;;;;;;;;;;5398531;26;20014;-56
2024/04/22 06:25:41;;;;;;;9.23;1.52;;;;;;;;;;5389159;26;20527;-57
2024/04/22 06:28:06;;;;;;;6.15;1.50;;;;;;;;;;5387990;26;20004;-57
2024/04/22 06:30:32;;;;;;;6.70;1.40;;;;;;;;;;5389798;26;20014;-56
2024/04/22 06:32:57;;;;;;;8.00;1.50;;;;;;;;;;5386894;26;20081;-57
2024/04/22 06:35:22;;;;;;;5.80;1.50;;;;;;;;;;5393756;26;20008;-57
2024/04/22 06:37:48;;;;;;;4.20;1.30;;;;;;;;;;5388603;26;20084;-57
2024/04/22 06:40:13;;;;;;;4.40;1.30;;;;;;;;;;5388479;26;20004;-58
2024/04/22 06:42:39;;;;;;;6.07;1.20;;;;;;;;;;5389515;26;20006;-56
2024/04/22 06:45:04;;;;;;;6.03;1.70;;;;;;;;;;5388982;26;20010;-55
2024/04/22 06:47:30;;;;;;;6.25;1.48;;;;;;;;;;5392697;26;20003;-56
2024/04/22 06:49:55;;;;;;;7.88;1.33;;;;;;;;;;5387751;26;20015;-57
2024/04/22 06:52:20;;;;;;;7.20;1.60;;;;;;;;;;5390632;26;20290;-56
2024/04/22 06:54:45;;;;;;;5.45;1.40;;;;;;;;;;5385923;26;20040;-57
2024/04/22 06:57:11;;;;;;;4.78;1.35;;;;;;;;;;5397428;26;19996;-57
2024/04/22 06:59:36;;;;;;;8.95;1.60;;;;;;;;;;5391885;26;20000;-57
2024/04/22 07:02:02;;;;;;;6.90;1.50;;;;;;;;;;5385213;26;20437;-57
2024/04/22 07:04:27;;;;;;;6.35;1.58;;;;;;;;;;5386718;26;20379;-57
2024/04/22 07:06:52;;;;;;;9.55;1.63;;;;;;;;;;5391514;26;19992;-57
2024/04/22 07:09:17;;;;;;;6.25;1.38;;;;;;;;;;5390508;26;20000;-58
2024/04/22 07:11:43;;;;;;;6.20;1.40;;;;;;;;;;5386955;26;20689;-57
2024/04/22 07:14:10;;;;;;;8.23;1.63;;;;;;;;;;5395251;26;20015;-56
2024/04/22 07:16:35;;;;;;;4.80;1.80;;;;;;;;;;5389711;26;20453;-56
2024/04/22 07:19:01;;;;;;;8.30;1.92;;;;;;;;;;5383519;26;20030;-56
2024/04/22 07:21:26;;;;;;;5.03;1.65;;;;;;;;;;5387680;26;20395;-57
2024/04/22 07:23:51;;;;;;;4.32;1.65;;;;;;;;;;5384391;26;20073;-58
2024/04/22 07:26:17;;;;;;;5.35;1.83;;;;;;;;;;5384324;26;19999;-57
2024/04/22 07:28:43;;;;;;;2.85;1.33;;;;;;;;;;5385955;26;20067;-61
2024/04/22 07:31:08;;;;;;;5.47;1.70;;;;;;;;;;5389825;26;19992;-60
2024/04/22 07:33:34;;;;;;;3.97;1.60;;;;;;;;;;5385666;26;20022;-59
2024/04/22 07:36:03;;;;;;;4.88;1.40;;;;;;;;;;5380079;26;19996;-59
2024/04/22 07:38:29;;;;;;;4.07;1.42;;;;;;;;;;5392989;26;20004;-60
2024/04/22 07:40:55;;;;;;;4.35;1.40;;;;;;;;;;5394138;26;20514;-59
2024/04/22 07:43:20;;;;;;;7.93;1.70;;;;;;;;;;5385444;26;20028;-59
2024/04/22 07:45:45;;;;;;;6.63;1.48;;;;;;;;;;5391036;26;20088;-59
2024/04/22 07:48:11;;;;;;;4.22;1.55;;;;;;;;;;5382257;26;20008;-59
2024/04/22 07:50:36;;;;;;;4.18;1.30;;;;;;;;;;5394369;26;20008;-60
2024/04/22 07:53:02;;;;;;;5.72;1.30;;;;;;;;;;5382232;26;20054;-60
2024/04/22 07:55:27;;;;;;;4.68;1.52;;;;;;;;;;5392264;26;20160;-58
2024/04/22 07:57:52;;;;;;;4.05;1.40;;;;;;;;;;5382828;26;20378;-59
2024/04/22 08:00:19;;;;;;;4.22;1.23;;;;;;;;;;5387090;26;20573;-59
2024/04/22 08:02:44;;;;;;;4.88;1.70;;;;;;;;;;5383382;26;20011;-59
2024/04/22 08:05:10;;;;;;;5.97;1.52;;;;;;;;;;5383722;26;20010;-57
2024/04/22 08:07:35;;;;;;;5.95;1.48;;;;;;;;;;5392115;26;20152;-59
2024/04/22 08:10:01;;;;;;;4.40;1.50;;;;;;;;;;5389525;26;20000;-59
2024/04/22 08:12:27;;;;;;;4.22;1.73;;;;;;;;;;5391441;26;20000;-58
2024/04/22 08:14:52;;;;;;;3.03;1.50;;;;;;;;;;5393866;26;20386;-58
2024/04/22 08:17:17;;;;;;;3.67;1.40;;;;;;;;;;5388873;26;20435;-59
2024/04/22 08:19:43;;;;;;;3.63;1.40;;;;;;;;;;5393815;26;20837;-58
2024/04/22 08:22:08;;;;;;;5.53;1.60;;;;;;;;;;5388315;26;20019;-59
2024/04/22 08:24:33;;;;;;;3.15;1.50;;;;;;;;;;5389852;26;20445;-59
2024/04/22 08:27:00;;;;;;;5.53;1.52;;;;;;;;;;5386311;26;20000;-58
2024/04/22 08:29:25;;;;;;;4.25;1.60;;;;;;;;;;5385852;26;20007;-57
2024/04/22 08:31:51;;;;;;;4.28;1.48;;;;;;;;;;5391447;26;20075;-59
2024/04/22 08:34:16;;;;;;;3.33;1.70;;;;;;;;;;5393122;26;20080;-58
2024/04/22 08:36:42;;;;;;;3.35;1.45;;;;;;;;;;5384241;26;20086;-60
2024/04/22 08:39:07;;;;;;;5.38;1.58;;;;;;;;;;5386999;26;20607;-59
2024/04/22 08:41:38;;;;;;;3.60;1.58;;;;;;;;;;5392312;26;20010;-59
2024/04/22 08:44:03;;;;;;;2.40;2.08;;;;;;;;;;5385370;26;20003;-58
2024/04/22 08:46:29;;;;;;;3.75;2.03;;;;;;;;;;5389565;26;20072;-58
2024/04/22 08:48:54;;;;;;;3.67;1.67;;;;;;;;;;5383751;26;20045;-58
2024/04/22 08:51:19;;;;;;;3.80;1.80;;;;;;;;;;5387314;26;20366;-57
2024/04/22 08:53:45;;;;;;;4.38;2.10;;;;;;;;;;5392226;26;20408;-58
2024/04/22 08:56:10;;;;;;;3.50;2.13;;;;;;;;;;5393440;26;20008;-58
2024/04/22 08:58:36;;;;;;;4.75;2.30;;;;;;;;;;5389834;26;20536;-57
2024/04/22 09:01:05;;;;;;;3.92;2.30;;;;;;;;;;5388815;26;19996;-58
2024/04/22 09:03:30;;;;;;;3.13;2.10;;;;;;;;;;5384838;26;20015;-57
2024/04/22 09:05:56;;;;;;;3.65;2.20;;;;;;;;;;5388932;26;20230;-58
2024/04/22 09:08:22;;;;;;;3.88;2.50;;;;;;;;;;5399745;26;20322;-57
2024/04/22 09:10:54;;;;;;;4.15;2.20;;;;;;;;;;5392661;26;20004;-58
2024/04/22 09:13:19;;;;;;;3.92;2.08;;;;;;;;;;5389824;26;20117;-57
2024/04/22 09:15:44;;;;;;;4.32;2.22;;;;;;;;;;5389746;26;20464;-57
2024/04/22 09:18:12;;;;;;;3.50;2.17;;;;;;;;;;5388346;26;20004;-58
2024/04/22 09:20:38;;;;;;;3.72;2.22;;;;;;;;;;5386891;26;20461;-58
2024/04/22 09:23:03;;;;;;;4.43;2.33;;;;;;;;;;5387976;26;20000;-57
2024/04/22 09:25:29;;;;;;;4.47;2.70;;;;;;;;;;5387655;26;19998;-58
2024/04/22 09:27:54;;;;;;;4.60;2.85;;;;;;;;;;5394438;26;20581;-58
2024/04/22 09:30:23;;;;;;;4.10;2.22;;;;;;;;;;5393869;26;19996;-58
2024/04/22 09:32:51;;;;;;;3.63;2.30;;;;;;;;;;5390213;26;19995;-57
2024/04/22 09:35:17;;;;;;;3.95;2.78;;;;;;;;;;5386628;26;20234;-58
2024/04/22 09:37:42;;;;;;;3.08;2.17;;;;;;;;;;5389498;26;20142;-58
2024/04/22 09:40:10;;;;;;;3.75;2.35;;;;;;;;;;5387447;26;20457;-57
2024/04/22 09:42:37;;;;;;;3.53;2.58;;;;;;;;;;5389991;26;20002;-57
2024/04/22 09:45:02;;;;;;;3.17;2.38;;;;;;;;;;5386216;26;20118;-60
2024/04/22 09:47:28;;;;;;;3.97;2.70;;;;;;;;;;5386208;26;20018;-59
2024/04/22 09:49:53;;;;;;;3.95;2.47;;;;;;;;;;5391873;26;20337;-57
2024/04/22 09:52:18;;;;;;;4.07;2.53;;;;;;;;;;5385940;26;20290;-59
2024/04/22 09:54:44;;;;;;;5.00;2.50;;;;;;;;;;5390250;26;20007;-58
2024/04/22 09:57:09;;;;;;;2.70;2.25;;;;;;;;;;5390670;26;20008;-58
2024/04/22 09:59:34;;;;;;;2.95;2.55;;;;;;;;;;5385748;26;20069;-58
2024/04/22 10:02:00;;;;;;;5.15;2.40;;;;;;;;;;5387495;26;20004;-59
2024/04/22 10:04:25;;;;;;;3.20;2.35;;;;;;;;;;5394006;26;20003;-58
2024/04/22 10:06:50;;;;;;;3.13;2.50;;;;;;;;;;5387844;26;19992;-58
2024/04/22 10:09:19;;;;;;;3.78;2.72;;;;;;;;;;5391358;26;20007;-58
2024/04/22 10:11:46;;;;;;;4.00;2.57;;;;;;;;;;5383946;26;20200;-58
2024/04/22 10:14:13;;;;;;;3.88;2.67;;;;;;;;;;5398996;26;20054;-58
2024/04/22 10:16:39;;;;;;;2.80;2.50;;;;;;;;;;5384392;26;19995;-57
2024/04/22 10:19:04;;;;;;;4.35;2.60;;;;;;;;;;5392905;26;20523;-58
2024/04/22 10:21:29;;;;;;;4.65;2.50;;;;;;;;;;5389271;26;20015;-59
2024/04/22 10:23:55;;;;;;;3.58;2.47;;;;;;;;;;5395262;26;20003;-57
2024/04/22 10:26:20;;;;;;;3.28;2.47;;;;;;;;;;5386442;26;19992;-57
2024/04/22 10:28:46;;;;;;;3.10;2.58;;;;;;;;;;5384243;26;20890;-59
2024/04/22 10:31:21;;;;;;;4.40;2.42;;;;;;;;;;5385937;26;20000;-56
2024/04/22 10:33:46;;;;;;;3.25;2.47;;;;;;;;;;5386199;26;20501;-57
2024/04/22 10:36:12;;;;;;;3.63;2.25;;;;;;;;;;5385387;26;20011;-57
2024/04/22 10:38:38;;;;;;;3.58;2.20;;;;;;;;;;5385417;26;20031;-57
2024/04/22 10:41:03;;;;;;;4.10;2.78;;;;;;;;;;5385253;26;19996;-57
2024/04/22 10:43:28;;;;;;;5.43;2.78;;;;;;;;;;5387179;26;20011;-57
2024/04/22 10:45:54;;;;;;;3.53;2.58;;;;;;;;;;5386138;26;20064;-58
2024/04/22 10:48:19;;;;;;;4.05;2.72;;;;;;;;;;5390255;26;20116;-57
2024/04/22 10:50:47;;;;;;;3.35;2.83;;;;;;;;;;5393694;26;20008;-57
2024/04/22 10:53:13;;;;;;;3.30;2.65;;;;;;;;;;5387365;26;20000;-56
2024/04/22 10:55:38;;;;;;;4.45;2.42;;;;;;;;;;5386218;26;20040;-56
2024/04/22 10:58:04;;;;;;;3.00;2.70;;;;;;;;;;5397380;26;20014;-57
2024/04/22 11:00:30;;;;;;;3.90;2.72;;;;;;;;;;5382881;26;20000;-56
2024/04/22 11:02:56;;;;;;;3.58;2.70;;;;;;;;;;5378378;26;20018;-56
2024/04/22 11:05:21;;;;;;;3.40;2.63;;;;;;;;;;5381947;26;20084;-56
2024/04/22 11:07:46;;;;;;;4.85;2.90;;;;;;;;;;5390784;26;20013;-56
2024/04/22 11:10:12;;;;;;;2.88;2.50;;;;;;;;;;5390699;26;20461;-56
2024/04/22 11:12:37;;;;;;;3.10;2.78;;;;;;;;;;5386956;26;19996;-56
2024/04/22 11:15:02;;;;;;;3.38;2.20;;;;;;;;;;5383770;26;20832;-56
2024/04/22 11:17:28;;;;;;;2.80;2.38;;;;;;;;;;5387323;26;20429;-55
2024/04/22 11:19:53;;;;;;;4.07;2.60;;;;;;;;;;5365799;26;20019;-56
2024/04/22 11:22:21;;;;;;;3.45;2.65;;;;;;;;;;5377132;26;20006;-56
2024/04/22 11:24:49;;;;;;;3.17;2.63;;;;;;;;;;5388984;26;20069;-55
2024/04/22 11:27:14;;;;;;;3.33;2.58;;;;;;;;;;5381736;26;19992;-57
2024/04/22 11:29:39;;;;;;;3.38;2.50;;;;;;;;;;5386760;26;20489;-56
2024/04/22 11:32:05;;;;;;;3.30;2.70;;;;;;;;;;5387273;26;20006;-56
2024/04/22 11:34:30;;;;;;;3.25;2.78;;;;;;;;;;5387152;26;20136;-55
2024/04/22 11:36:56;;;;;;;3.28;2.50;;;;;;;;;;5394403;26;20043;-56
2024/04/22 11:39:21;;;;;;;2.97;2.60;;;;;;;;;;5389088;26;20035;-56
2024/04/22 11:41:46;;;;;;;4.95;2.78;;;;;;;;;;5391189;26;20023;-56
2024/04/22 11:44:12;;;;;;;3.25;2.70;;;;;;;;;;5387993;26;20006;-56
2024/04/22 11:46:39;;;;;;;3.25;2.58;;;;;;;;;;5389970;26;20091;-56
2024/04/22 11:49:05;;;;;;;2.72;2.40;;;;;;;;;;5390456;26;20897;-56
2024/04/22 11:51:30;;;;;;;3.00;2.50;;;;;;;;;;5389626;26;20003;-56
2024/04/22 11:53:56;;;;;;;3.00;2.58;;;;;;;;;;5385651;26;19996;-57
2024/04/22 11:56:25;;;;;;;3.72;2.65;;;;;;;;;;5388238;26;20015;-57
2024/04/22 11:58:51;;;;;;;2.75;2.40;;;;;;;;;;5390842;26;20433;-57
2024/04/22 12:01:16;;;;;;;3.00;2.42;;;;;;;;;;5386552;26;20026;-57
2024/04/22 12:03:42;;;;;;;3.35;2.65;;;;;;;;;;5394285;26;20032;-57
2024/04/22 12:06:07;;;;;;;2.90;2.33;;;;;;;;;;5385791;26;20000;-55
2024/04/22 12:08:32;;;;;;;2.85;2.47;;;;;;;;;;5396490;26;19999;-55
2024/04/22 12:10:58;;;;;;;3.42;2.20;;;;;;;;;;5392927;26;20437;-56
2024/04/22 12:13:24;;;;;;;3.95;2.85;;;;;;;;;;5390353;26;20010;-55
2024/04/22 12:15:49;;;;;;;3.08;2.38;;;;;;;;;;5380471;26;20000;-56
2024/04/22 12:18:15;;;;;;;3.35;2.58;;;;;;;;;;5386970;26;20000;-56
2024/04/22 12:20:40;;;;;;;2.85;2.47;;;;;;;;;;5389352;26;20000;-56
2024/04/22 12:23:05;;;;;;;2.92;2.25;;;;;;;;;;5387815;26;20051;-57
2024/04/22 12:25:30;;;;;;;3.67;2.67;;;;;;;;;;5399630;26;20318;-56
2024/04/22 12:27:56;;;;;;;3.33;2.30;;;;;;;;;;5397489;26;20148;-56
2024/04/22 12:30:21;;;;;;;2.63;2.17;;;;;;;;;;5395868;26;20030;-56
2024/04/22 12:32:46;;;;;;;3.63;2.22;;;;;;;;;;5394887;26;20003;-57
2024/04/22 12:35:12;;;;;;;3.75;2.10;;;;;;;;;;5385442;26;20015;-56
2024/04/22 12:37:37;;;;;;;3.28;2.40;;;;;;;;;;5395544;26;19999;-57
2024/04/22 12:40:03;;;;;;;2.63;2.30;;;;;;;;;;5397337;26;20359;-56
2024/04/22 12:42:28;;;;;;;2.28;2.08;;;;;;;;;;5397242;26;20000;-56
2024/04/22 12:44:53;;;;;;;3.83;2.50;;;;;;;;;;5386427;26;20016;-57
2024/04/22 12:52:46;;;;;;;2.35;2.00;;;;;;;;;;5393976;26;20061;-56
2024/04/22 12:55:11;;;;;;;3.05;2.33;;;;;;;;;;5410039;26;20015;-56
2024/04/22 12:57:37;;;;;;;2.92;2.20;;;;;;;;;;5397692;26;20050;-56
2024/04/22 13:00:12;;;;;;;3.40;2.33;;;;;;;;;;5380666;26;19995;-57
2024/04/22 13:02:37;;;;;;;4.03;2.35;;;;;;;;;;5403091;26;20027;-56
2024/04/22 13:05:03;;;;;;;2.90;2.30;;;;;;;;;;5388774;26;20007;-56
2024/04/22 13:07:28;;;;;;;2.38;1.90;;;;;;;;;;5388173;26;20076;-56
2024/04/22 13:09:54;;;;;;;3.22;2.03;;;;;;;;;;5388427;26;20002;-57
2024/04/22 13:12:19;;;;;;;2.90;2.10;;;;;;;;;;5386329;26;20011;-56
2024/04/22 13:14:45;;;;;;;3.05;2.30;;;;;;;;;;5400072;26;19999;-56
2024/04/22 13:17:10;;;;;;;2.97;2.15;;;;;;;;;;5395271;26;20088;-57
2024/04/22 13:19:35;;;;;;;3.03;2.10;;;;;;;;;;5393459;26;20018;-56
2024/04/22 13:22:01;;;;;;;3.28;2.30;;;;;;;;;;5387173;26;20382;-55
2024/04/22 13:24:26;;;;;;;2.75;2.03;;;;;;;;;;5398605;26;20441;-57
2024/04/22 13:26:51;;;;;;;2.50;2.00;;;;;;;;;;5394850;26;20334;-56
2024/04/22 13:29:16;;;;;;;2.50;2.00;;;;;;;;;;5385323;26;20015;-56
2024/04/22 13:31:42;;;;;;;2.72;2.30;;;;;;;;;;5378677;26;20065;-57
2024/04/22 13:34:07;;;;;;;3.47;1.80;;;;;;;;;;5386256;26;20074;-57
2024/04/22 13:36:32;;;;;;;2.45;2.15;;;;;;;;;;5379372;26;19996;-57
2024/04/22 13:38:58;;;;;;;2.55;2.30;;;;;;;;;;5385524;26;20003;-57
2024/04/22 13:41:24;;;;;;;3.63;2.20;;;;;;;;;;5380267;26;20078;-57
2024/04/22 13:43:49;;;;;;;3.35;1.92;;;;;;;;;;5397594;26;20091;-57
2024/04/22 13:46:14;;;;;;;2.50;2.30;;;;;;;;;;5392057;26;20446;-56
2024/04/22 13:48:40;;;;;;;2.78;2.00;;;;;;;;;;5391349;26;20000;-57
2024/04/22 13:51:05;;;;;;;2.10;1.77;;;;;;;;;;5396019;26;20001;-58
2024/04/22 13:53:31;;;;;;;2.10;1.90;;;;;;;;;;5401569;26;20314;-57
2024/04/22 13:55:57;;;;;;;3.03;2.20;;;;;;;;;;5387250;26;20024;-58
2024/04/22 13:58:24;;;;;;;3.05;2.10;;;;;;;;;;5388865;26;20034;-57
2024/04/22 14:00:49;;;;;;;4.13;2.53;;;;;;;;;;5398850;26;20007;-60
2024/04/22 14:03:14;;;;;;;4.25;2.50;;;;;;;;;;5393669;26;20022;-59
2024/04/22 14:05:40;;;;;;;3.67;2.47;;;;;;;;;;5399629;26;20450;-59
2024/04/22 14:08:05;;;;;;;4.57;2.50;;;;;;;;;;5399223;26;20007;-59
2024/04/22 14:10:30;;;;;;;4.97;3.00;;;;;;;;;;5388541;26;20015;-58
2024/04/22 14:12:56;;;;;;;3.53;2.78;;;;;;;;;;5403769;26;20015;-59
2024/04/22 14:15:21;;;;;;;4.22;2.70;;;;;;;;;;5410909;26;20026;-58
2024/04/22 14:17:47;;;;;;;4.47;2.63;;;;;;;;;;5408022;26;20011;-59
2024/04/22 14:20:12;;;;;;;3.25;2.88;;;;;;;;;;5403300;26;20105;-59
2024/04/22 14:22:38;;;;;;;3.65;3.00;;;;;;;;;;5396215;26;20073;-59
2024/04/22 14:25:03;;;;;;;3.25;2.90;;;;;;;;;;5381937;26;20092;-60
2024/04/22 14:27:29;;;;;;;3.00;2.42;;;;;;;;;;5397105;26;20569;-60
2024/04/22 14:29:54;;;;;;;4.18;2.92;;;;;;;;;;5404607;26;20057;-60
2024/04/22 14:32:19;;;;;;;3.47;3.17;;;;;;;;;;5400116;26;20069;-60
2024/04/22 14:34:45;;;;;;;3.45;3.00;;;;;;;;;;5388340;26;20000;-58
2024/04/22 14:37:10;;;;;;;3.75;2.72;;;;;;;;;;5410319;26;19999;-58
2024/04/22 14:39:36;;;;;;;3.28;2.85;;;;;;;;;;5409387;26;20449;-57
2024/04/22 14:42:01;;;;;;;3.75;3.30;;;;;;;;;;5409485;26;20012;-58
2024/04/22 14:44:26;;;;;;;3.15;2.72;;;;;;;;;;5392398;26;20007;-59